Time;durP1;ratioP1;P1;durP2;ratioP2;P2;SDS_P1;SDS_P2;PMS_P1;PMS_P2;Temp;Humidity;BMP_temperature;BMP_pressure;BME280_temperature;BME280_humidity;BME280_pressure;Samples;Min_cycle;Max_cycle;Signal;HPM_P1;HPM_P2
2022/04/04 00:00:52;;;;;;;7.18;3.25;;;3.90;47.30;;;;;;5098115;28;20103;-48
2022/04/04 00:03:17;;;;;;;5.53;3.03;;;3.80;48.40;;;;;;5098002;28;20028;-48
2022/04/04 00:05:43;;;;;;;5.63;3.05;;;3.80;46.90;;;;;;5098103;28;20035;-49
2022/04/04 00:08:09;;;;;;;6.70;3.30;;;3.70;49.40;;;;;;5098199;28;20031;-49
2022/04/04 00:10:35;;;;;;;5.35;3.10;;;3.70;47.50;;;;;;5098279;28;20020;-49
2022/04/04 00:13:01;;;;;;;8.02;4.03;;;3.70;47.60;;;;;;5097936;28;20027;-51
2022/04/04 00:15:27;;;;;;;6.80;3.58;;;3.70;48.50;;;;;;5098136;28;20024;-49
2022/04/04 00:17:55;;;;;;;6.07;3.38;;;3.70;46.50;;;;;;5098051;28;20035;-49
2022/04/04 00:20:22;;;;;;;8.20;3.47;;;3.70;47.10;;;;;;5097666;28;20028;-49
2022/04/04 00:22:47;;;;;;;9.30;3.97;;;3.70;47.70;;;;;;5097567;28;20048;-49
2022/04/04 00:25:13;;;;;;;5.82;3.17;;;3.70;45.00;;;;;;5097999;28;20062;-50
2022/04/04 00:27:39;;;;;;;5.38;3.17;;;3.70;47.90;;;;;;5097970;28;20031;-49
2022/04/04 00:30:05;;;;;;;6.95;3.38;;;3.60;48.10;;;;;;5097735;28;20030;-49
2022/04/04 00:32:31;;;;;;;6.43;3.80;;;3.60;48.50;;;;;;5098106;28;20028;-49
2022/04/04 00:34:57;;;;;;;6.55;3.30;;;3.60;48.20;;;;;;5097703;28;20016;-49
2022/04/04 00:37:22;;;;;;;6.03;3.20;;;3.60;50.70;;;;;;5097887;28;20107;-49
2022/04/04 00:39:48;;;;;;;6.65;3.47;;;3.60;49.40;;;;;;5097864;28;20028;-50
2022/04/04 00:42:16;;;;;;;5.38;3.45;;;3.50;48.90;;;;;;5097445;28;20054;-49
2022/04/04 00:44:42;;;;;;;6.68;3.67;;;3.50;49.20;;;;;;5098736;28;20553;-50
2022/04/04 00:47:08;;;;;;;6.30;3.58;;;3.50;50.60;;;;;;5101942;28;20085;-49
2022/04/04 00:49:34;;;;;;;5.88;3.63;;;3.50;50.20;;;;;;5101836;28;20050;-49
2022/04/04 00:52:00;;;;;;;6.82;3.70;;;3.40;48.40;;;;;;5102029;28;20407;-51
2022/04/04 00:54:27;;;;;;;7.38;3.72;;;3.40;51.20;;;;;;5101554;28;20024;-49
2022/04/04 00:56:53;;;;;;;7.65;4.25;;;3.30;50.80;;;;;;5101732;28;20051;-51
2022/04/04 00:59:22;;;;;;;7.65;3.63;;;3.30;51.60;;;;;;5101469;28;20027;-49
2022/04/04 01:01:49;;;;;;;9.75;4.10;;;3.30;50.70;;;;;;5101467;28;20111;-49
2022/04/04 01:04:16;;;;;;;7.88;3.78;;;3.30;51.00;;;;;;5101283;28;20505;-49
2022/04/04 01:06:43;;;;;;;6.55;3.40;;;3.30;49.70;;;;;;5101415;28;20081;-49
2022/04/04 01:09:14;;;;;;;7.18;3.95;;;3.30;49.00;;;;;;5101265;28;20091;-48
2022/04/04 01:12:09;;;;;;;8.38;3.90;;;3.30;45.40;;;;;;5101072;28;20138;-48
2022/04/04 01:14:36;;;;;;;;;;;3.30;49.00;;;;;;5101621;28;20024;-49
2022/04/04 01:17:01;;;;;;;6.50;3.85;;;3.30;50.70;;;;;;5101378;28;19991;-49
2022/04/04 01:19:27;;;;;;;5.95;3.55;;;3.20;50.40;;;;;;5101352;28;20056;-49
2022/04/04 01:21:53;;;;;;;7.43;3.90;;;3.20;49.20;;;;;;5101435;28;20032;-49
2022/04/04 01:24:21;;;;;;;5.55;3.80;;;3.20;50.20;;;;;;5100729;28;20048;-50
2022/04/04 01:26:48;;;;;;;6.85;3.55;;;3.20;49.60;;;;;;5100746;28;20430;-49
2022/04/04 01:29:13;;;;;;;6.32;3.33;;;3.20;49.00;;;;;;5100930;28;20090;-50
2022/04/04 01:31:40;;;;;;;6.72;3.05;;;3.10;50.50;;;;;;5101146;28;20032;-50
2022/04/04 01:34:05;;;;;;;6.57;3.55;;;3.10;51.50;;;;;;5100970;28;20020;-48
2022/04/04 01:36:31;;;;;;;8.07;3.70;;;3.10;52.10;;;;;;5101201;28;20031;-48
2022/04/04 01:38:57;;;;;;;7.18;3.50;;;3.10;51.40;;;;;;5100737;28;20074;-49
2022/04/04 01:41:23;;;;;;;5.65;3.38;;;3.10;50.80;;;;;;5100928;28;20055;-49
2022/04/04 01:43:49;;;;;;;5.75;3.08;;;3.10;51.10;;;;;;5100803;28;20030;-49
2022/04/04 01:46:24;;;;;;;5.35;3.10;;;3.10;51.20;;;;;;5101049;28;20020;-49
2022/04/04 01:48:53;;;;;;;5.38;3.20;;;3.00;53.30;;;;;;5100962;28;20031;-49
2022/04/04 01:51:19;;;;;;;7.85;3.47;;;3.00;52.70;;;;;;5100519;28;20376;-48
2022/04/04 01:53:45;;;;;;;5.95;3.17;;;2.90;52.40;;;;;;5100655;28;20098;-49
2022/04/04 01:56:12;;;;;;;7.75;3.55;;;2.90;53.00;;;;;;5100377;28;20408;-49
2022/04/04 01:58:39;;;;;;;7.07;3.67;;;3.00;49.10;;;;;;5100392;28;20081;-48
2022/04/04 02:01:17;;;;;;;5.18;3.47;;;2.90;50.10;;;;;;5100310;28;20368;-49
2022/04/04 02:03:48;;;;;;;6.10;3.50;;;2.90;51.70;;;;;;5100239;28;20071;-49
2022/04/04 02:06:15;;;;;;;8.07;3.70;;;2.90;52.60;;;;;;5100439;28;20382;-49
2022/04/04 02:08:42;;;;;;;6.60;3.58;;;2.90;51.50;;;;;;5100384;28;20047;-48
2022/04/04 02:11:08;;;;;;;6.85;3.63;;;2.90;49.70;;;;;;5100325;28;20107;-49
2022/04/04 02:13:34;;;;;;;7.60;3.97;;;2.90;52.00;;;;;;5100146;28;20040;-49
2022/04/04 02:16:01;;;;;;;4.30;3.05;;;2.80;52.20;;;;;;5100033;28;20020;-49
2022/04/04 02:18:32;;;;;;;6.38;3.65;;;2.80;53.20;;;;;;5098535;28;20035;-50
2022/04/04 02:20:58;;;;;;;5.93;3.58;;;2.80;54.30;;;;;;5099945;28;20407;-49
2022/04/04 02:23:25;;;;;;;7.53;3.75;;;2.80;54.30;;;;;;5099610;28;20040;-48
2022/04/04 02:25:52;;;;;;;6.97;3.90;;;2.70;54.80;;;;;;5100045;28;20024;-48
2022/04/04 02:28:19;;;;;;;8.13;4.35;;;2.70;53.30;;;;;;5099868;28;20035;-49
2022/04/04 02:30:46;;;;;;;6.75;3.88;;;2.80;52.90;;;;;;5099937;28;20031;-49
2022/04/04 02:33:13;;;;;;;6.30;3.75;;;2.70;52.70;;;;;;5099876;28;20063;-50
2022/04/04 02:35:39;;;;;;;7.22;4.07;;;2.70;52.60;;;;;;5099822;28;20028;-48
2022/04/04 02:38:05;;;;;;;5.38;3.28;;;2.70;51.40;;;;;;5099608;28;20551;-49
2022/04/04 02:40:31;;;;;;;7.13;3.67;;;2.60;52.10;;;;;;5099997;28;20024;-48
2022/04/04 02:42:57;;;;;;;8.48;4.05;;;2.60;53.70;;;;;;5099439;28;20066;-49
2022/04/04 02:45:23;;;;;;;6.15;3.85;;;2.60;53.60;;;;;;5099465;28;20024;-49
2022/04/04 02:47:49;;;;;;;6.32;4.15;;;2.60;55.60;;;;;;5099610;28;20020;-48
2022/04/04 02:50:16;;;;;;;7.10;3.83;;;2.50;55.50;;;;;;5099807;28;20027;-48
2022/04/04 02:52:43;;;;;;;5.97;3.85;;;2.50;53.00;;;;;;5099524;28;20020;-48
2022/04/04 02:57:55;;;;;;;;;;;2.50;55.60;;;;;;5100092;28;20042;-49
2022/04/04 03:00:23;;;;;;;6.20;3.90;;;2.50;53.00;;;;;;5099103;28;19908;-48
2022/04/04 03:02:50;;;;;;;8.18;3.75;;;2.60;51.20;;;;;;5099316;28;20024;-49
2022/04/04 03:05:16;;;;;;;6.30;4.30;;;2.60;50.50;;;;;;5099309;28;20032;-48
2022/04/04 03:07:42;;;;;;;7.85;4.18;;;2.50;52.30;;;;;;5098151;28;20020;-48
2022/04/04 03:10:09;;;;;;;7.22;4.68;;;2.50;51.90;;;;;;5099050;28;20031;-48
2022/04/04 03:12:46;;;;;;;6.18;3.97;;;2.50;49.30;;;;;;5099102;28;20079;-50
2022/04/04 03:15:15;;;;;;;9.52;4.20;;;2.40;48.60;;;;;;5099130;28;20016;-49
2022/04/04 03:17:43;;;;;;;5.32;4.10;;;2.40;52.70;;;;;;5099394;28;20024;-49
2022/04/04 03:20:13;;;;;;;9.15;4.60;;;2.30;53.60;;;;;;5098890;28;20031;-48
2022/04/04 03:22:44;;;;;;;6.68;3.75;;;2.30;54.70;;;;;;5098492;28;20403;-48
2022/04/04 03:25:12;;;;;;;6.35;3.80;;;2.30;58.10;;;;;;5098523;28;20391;-48
2022/04/04 03:27:39;;;;;;;6.32;4.13;;;2.30;54.80;;;;;;5098650;28;20031;-48
2022/04/04 03:30:07;;;;;;;6.60;4.10;;;2.30;55.00;;;;;;5098605;28;20020;-50
2022/04/04 03:32:33;;;;;;;6.55;3.80;;;2.30;53.60;;;;;;5098340;28;20024;-50
2022/04/04 03:34:59;;;;;;;7.28;3.92;;;2.30;55.60;;;;;;5098342;28;20020;-48
2022/04/04 03:37:25;;;;;;;7.03;4.20;;;2.30;51.40;;;;;;5098455;28;20050;-48
2022/04/04 03:39:52;;;;;;;6.72;3.65;;;2.30;53.30;;;;;;5098915;28;20027;-49
2022/04/04 03:42:18;;;;;;;7.60;4.18;;;2.30;55.80;;;;;;5098362;28;20031;-48
2022/04/04 03:44:44;;;;;;;8.43;4.82;;;2.30;56.50;;;;;;5098901;28;20610;-48
2022/04/04 03:47:10;;;;;;;6.68;4.05;;;2.30;51.50;;;;;;5098395;28;20058;-48
2022/04/04 03:49:37;;;;;;;5.45;3.60;;;2.30;51.20;;;;;;5098272;28;20387;-49
2022/04/04 03:52:04;;;;;;;6.43;3.85;;;2.20;55.40;;;;;;5098334;28;20054;-48
2022/04/04 03:54:31;;;;;;;7.68;3.97;;;2.20;55.60;;;;;;5098194;28;20129;-48
2022/04/04 03:56:57;;;;;;;6.38;4.15;;;2.20;52.10;;;;;;5098668;28;20039;-49
2022/04/04 03:59:23;;;;;;;9.45;4.63;;;2.20;53.30;;;;;;5098309;28;20074;-48
2022/04/04 04:01:49;;;;;;;7.97;3.83;;;2.20;50.90;;;;;;5098362;28;20032;-48
2022/04/04 04:04:16;;;;;;;6.65;4.35;;;2.20;51.20;;;;;;5097970;28;20061;-48
2022/04/04 04:06:41;;;;;;;9.57;5.00;;;2.10;51.40;;;;;;5098284;28;20020;-49
2022/04/04 04:09:07;;;;;;;9.38;5.47;;;2.10;52.50;;;;;;5098213;28;20383;-48
2022/04/04 04:11:34;;;;;;;9.00;5.88;;;2.10;50.40;;;;;;5098140;28;20107;-48
2022/04/04 04:14:00;;;;;;;9.27;6.72;;;2.10;51.90;;;;;;5097879;28;20807;-48
2022/04/04 04:16:27;;;;;;;7.68;5.00;;;2.10;50.60;;;;;;5098243;28;20043;-49
2022/04/04 04:18:53;;;;;;;6.60;4.63;;;2.10;52.10;;;;;;5097653;28;20032;-48
2022/04/04 04:21:20;;;;;;;9.23;4.95;;;2.10;53.60;;;;;;5097935;28;20034;-49
2022/04/04 04:23:46;;;;;;;7.93;5.55;;;2.00;50.70;;;;;;5097443;28;20141;-49
2022/04/04 04:26:13;;;;;;;9.13;5.85;;;2.00;53.10;;;;;;5097814;28;20021;-48
2022/04/04 04:28:40;;;;;;;8.48;6.50;;;2.00;55.60;;;;;;5097865;28;20024;-49
2022/04/04 04:31:06;;;;;;;9.25;6.60;;;2.00;53.60;;;;;;5097599;28;20020;-53
2022/04/04 04:33:32;;;;;;;8.30;6.20;;;2.00;56.30;;;;;;5098137;28;20490;-50
2022/04/04 04:36:00;;;;;;;8.18;6.22;;;2.10;56.40;;;;;;5097714;28;20052;-48
2022/04/04 04:38:26;;;;;;;10.45;6.22;;;2.00;57.50;;;;;;5097744;28;20052;-49
2022/04/04 04:40:52;;;;;;;10.38;6.68;;;2.10;55.50;;;;;;5097675;28;20043;-49
2022/04/04 04:43:18;;;;;;;9.73;6.30;;;2.10;55.00;;;;;;5097546;28;20024;-50
2022/04/04 04:45:44;;;;;;;9.40;6.65;;;2.10;57.30;;;;;;5097594;28;20028;-51
2022/04/04 04:48:10;;;;;;;9.00;6.50;;;2.00;56.90;;;;;;5097878;28;20016;-51
2022/04/04 04:50:36;;;;;;;9.77;6.80;;;2.00;55.60;;;;;;5097821;28;20383;-48
2022/04/04 04:53:02;;;;;;;11.52;7.43;;;2.00;58.80;;;;;;5097621;28;20077;-49
2022/04/04 04:55:28;;;;;;;11.68;7.63;;;2.00;60.00;;;;;;5097950;28;20035;-48
2022/04/04 04:57:55;;;;;;;10.45;7.43;;;2.00;58.20;;;;;;5097720;28;20032;-50
2022/04/04 05:00:24;;;;;;;11.02;8.02;;;2.00;58.80;;;;;;5097490;28;20499;-56
2022/04/04 05:05:40;;;;;;;11.18;8.05;;;2.00;57.10;;;;;;5097885;28;20054;-48
2022/04/04 05:08:06;;;;;;;11.45;7.82;;;2.00;57.20;;;;;;5097417;28;20511;-50
2022/04/04 05:10:32;;;;;;;10.23;7.90;;;2.00;57.80;;;;;;5097856;28;20095;-48
2022/04/04 05:12:58;;;;;;;10.80;7.47;;;2.00;57.50;;;;;;5097291;28;20065;-48
2022/04/04 05:15:24;;;;;;;9.90;7.68;;;2.00;56.90;;;;;;5097129;28;20032;-49
2022/04/04 05:17:52;;;;;;;11.20;6.88;;;2.00;57.50;;;;;;5097559;28;20082;-48
2022/04/04 05:20:19;;;;;;;11.60;7.03;;;2.00;59.20;;;;;;5097372;28;20052;-50
2022/04/04 05:22:45;;;;;;;10.15;7.13;;;2.00;57.10;;;;;;5097181;28;20075;-50
2022/04/04 05:25:12;;;;;;;9.18;6.95;;;2.00;56.90;;;;;;5097240;28;20020;-48
2022/04/04 05:27:39;;;;;;;12.02;7.70;;;2.00;59.40;;;;;;5097036;28;20028;-49
2022/04/04 05:30:05;;;;;;;10.75;7.70;;;1.90;59.40;;;;;;5097487;28;20047;-48
2022/04/04 05:32:31;;;;;;;12.80;7.20;;;1.90;56.40;;;;;;5101197;28;20028;-50
2022/04/04 05:34:57;;;;;;;9.65;7.38;;;1.90;57.80;;;;;;5100830;28;20027;-49
2022/04/04 05:37:25;;;;;;;10.80;8.00;;;1.90;58.60;;;;;;5100831;28;20028;-48
2022/04/04 05:39:51;;;;;;;8.77;7.28;;;1.90;58.40;;;;;;5100756;28;20478;-48
2022/04/04 05:42:17;;;;;;;9.90;7.53;;;1.90;59.30;;;;;;5100953;28;20028;-48
2022/04/04 05:44:43;;;;;;;9.50;6.70;;;1.90;60.10;;;;;;5100990;28;20028;-48
2022/04/04 05:47:13;;;;;;;11.25;7.85;;;1.90;60.30;;;;;;5100789;28;20023;-48
2022/04/04 05:49:40;;;;;;;9.07;6.82;;;1.90;58.60;;;;;;5100560;28;20029;-48
2022/04/04 05:52:06;;;;;;;10.25;7.30;;;1.80;58.00;;;;;;5100832;28;20012;-51
2022/04/04 05:54:32;;;;;;;9.50;6.47;;;1.80;60.20;;;;;;5100486;28;20543;-48
2022/04/04 05:56:58;;;;;;;10.15;7.50;;;1.90;56.20;;;;;;5100877;28;20027;-47
2022/04/04 05:59:25;;;;;;;9.93;6.75;;;1.90;56.50;;;;;;5100211;28;20055;-48
2022/04/04 06:01:51;;;;;;;11.15;7.07;;;1.90;55.30;;;;;;5100481;28;20039;-48
2022/04/04 06:04:17;;;;;;;10.35;6.63;;;1.80;58.10;;;;;;5100366;28;20024;-50
2022/04/04 06:06:43;;;;;;;9.45;6.97;;;1.80;58.80;;;;;;5100456;28;20103;-48
2022/04/04 06:09:09;;;;;;;9.20;7.15;;;1.90;58.50;;;;;;5100171;28;20043;-49
2022/04/04 06:11:34;;;;;;;11.70;7.57;;;1.90;55.90;;;;;;5100160;28;20054;-48
2022/04/04 06:14:00;;;;;;;11.98;9.07;;;1.90;56.30;;;;;;5100274;28;20028;-51
2022/04/04 06:16:26;;;;;;;12.60;9.05;;;1.90;57.80;;;;;;5100209;28;20479;-48
2022/04/04 06:18:53;;;;;;;12.68;9.52;;;1.90;59.80;;;;;;5100270;28;20142;-49
2022/04/04 06:21:19;;;;;;;13.98;10.35;;;1.90;60.20;;;;;;5099983;28;20024;-48
2022/04/04 06:23:44;;;;;;;12.93;9.23;;;1.90;59.90;;;;;;5099498;28;20110;-48
2022/04/04 06:26:12;;;;;;;12.27;10.02;;;1.90;60.70;;;;;;5100250;28;20503;-49
2022/04/04 06:28:38;;;;;;;14.02;12.02;;;1.90;59.90;;;;;;5099596;28;20028;-50
2022/04/04 06:31:04;;;;;;;12.45;10.27;;;2.00;55.10;;;;;;5099740;28;20028;-49
2022/04/04 06:33:30;;;;;;;13.48;11.10;;;2.00;57.60;;;;;;5099867;28;20020;-52
2022/04/04 06:35:56;;;;;;;15.70;11.70;;;2.10;58.20;;;;;;5099927;28;20066;-49
2022/04/04 06:38:22;;;;;;;17.65;12.85;;;2.10;60.20;;;;;;5099611;28;20020;-50
2022/04/04 06:40:51;;;;;;;17.90;13.07;;;2.10;60.70;;;;;;5100025;28;20016;-49
2022/04/04 06:43:18;;;;;;;18.40;14.40;;;2.10;60.80;;;;;;5099386;28;20024;-50
2022/04/04 06:45:45;;;;;;;18.73;15.27;;;2.20;59.50;;;;;;5099437;28;20028;-50
2022/04/04 06:48:12;;;;;;;21.08;17.80;;;2.20;56.30;;;;;;5099414;28;20020;-53
2022/04/04 06:50:38;;;;;;;20.45;16.40;;;2.30;60.50;;;;;;5099641;28;20020;-52
2022/04/04 06:53:04;;;;;;;21.25;17.88;;;2.30;57.00;;;;;;5099322;28;20028;-54
2022/04/04 06:55:31;;;;;;;20.25;16.75;;;2.50;55.90;;;;;;5099335;28;20106;-52
2022/04/04 06:57:57;;;;;;;18.42;16.52;;;2.50;53.80;;;;;;5099145;28;20031;-50
2022/04/04 07:00:23;;;;;;;18.77;16.27;;;2.60;57.60;;;;;;5099283;28;20024;-49
2022/04/04 07:02:49;;;;;;;19.27;17.27;;;2.70;54.90;;;;;;5098946;28;20414;-53
2022/04/04 07:05:16;;;;;;;18.00;16.13;;;2.90;56.90;;;;;;5099173;28;20008;-52
2022/04/04 07:07:42;;;;;;;17.67;14.60;;;2.90;55.00;;;;;;5098475;28;20042;-53
2022/04/04 07:10:11;;;;;;;19.10;17.17;;;3.10;56.20;;;;;;5098732;28;20099;-52
2022/04/04 07:12:41;;;;;;;18.67;14.90;;;3.20;54.80;;;;;;5098398;28;20024;-52
2022/04/04 07:15:10;;;;;;;17.65;14.93;;;3.30;57.50;;;;;;5098706;28;20048;-54
2022/04/04 07:17:39;;;;;;;19.27;16.95;;;3.40;57.50;;;;;;5098465;28;20069;-54
2022/04/04 07:20:06;;;;;;;18.50;16.52;;;3.50;54.40;;;;;;5098386;28;20027;-51
2022/04/04 07:22:36;;;;;;;56.38;17.15;;;3.50;54.90;;;;;;5098298;28;20510;-53
2022/04/04 07:25:04;;;;;;;16.63;14.18;;;3.60;57.90;;;;;;5098421;28;20027;-52
2022/04/04 07:27:31;;;;;;;18.42;13.77;;;3.70;58.30;;;;;;5098248;28;20020;-54
2022/04/04 07:29:57;;;;;;;15.93;13.73;;;3.80;56.30;;;;;;5098234;28;20078;-49
2022/04/04 07:32:23;;;;;;;15.25;13.65;;;3.90;60.00;;;;;;5098044;28;20021;-50
2022/04/04 07:34:49;;;;;;;18.38;13.50;;;4.10;58.60;;;;;;5098105;28;20060;-51
2022/04/04 07:37:14;;;;;;;16.27;12.98;;;4.30;60.20;;;;;;5098260;28;20024;-50
2022/04/04 07:39:40;;;;;;;15.65;11.75;;;4.50;60.70;;;;;;5097942;28;20441;-51
2022/04/04 07:42:06;;;;;;;13.90;11.13;;;4.70;60.40;;;;;;5098007;28;20084;-55
2022/04/04 07:44:32;;;;;;;15.23;10.90;;;5.00;57.50;;;;;;5097993;28;20028;-53
2022/04/04 07:46:58;;;;;;;14.40;11.40;;;5.20;58.30;;;;;;5097626;28;20495;-55
2022/04/04 07:49:24;;;;;;;12.38;9.48;;;5.30;56.90;;;;;;5097702;28;20055;-57
2022/04/04 07:51:50;;;;;;;15.60;9.38;;;5.50;58.60;;;;;;5097570;28;20024;-52
2022/04/04 07:54:16;;;;;;;11.32;8.63;;;5.60;58.40;;;;;;5097280;28;20030;-52
2022/04/04 07:56:42;;;;;;;10.43;9.02;;;5.80;58.70;;;;;;5097728;28;20032;-54
2022/04/04 07:59:08;;;;;;;12.85;9.38;;;6.00;60.00;;;;;;5097672;28;20035;-56
2022/04/04 08:01:34;;;;;;;14.48;12.10;;;6.20;57.70;;;;;;5097595;28;20028;-54
2022/04/04 08:04:00;;;;;;;15.63;13.82;;;6.50;60.50;;;;;;5097422;28;20077;-53
2022/04/04 08:06:26;;;;;;;14.65;13.05;;;6.70;60.80;;;;;;5097712;28;20027;-55
2022/04/04 08:08:52;;;;;;;13.43;11.57;;;7.00;59.80;;;;;;5096616;28;20024;-56
2022/04/04 08:11:17;;;;;;;21.55;11.15;;;7.20;59.80;;;;;;5097233;28;20017;-56
2022/04/04 08:13:45;;;;;;;12.30;7.70;;;7.50;60.30;;;;;;5097318;28;20046;-56
2022/04/04 08:16:11;;;;;;;8.23;5.97;;;7.70;60.10;;;;;;5097106;28;20051;-55
2022/04/04 08:18:38;;;;;;;9.77;5.45;;;8.00;61.40;;;;;;5097337;28;20035;-57
2022/04/04 08:21:04;;;;;;;8.75;4.88;;;8.20;61.10;;;;;;5097081;28;20399;-58
2022/04/04 08:23:31;;;;;;;7.93;5.10;;;8.40;61.90;;;;;;5097141;28;20047;-57
2022/04/04 08:25:58;;;;;;;8.88;4.60;;;8.60;62.80;;;;;;5097120;28;20085;-54
2022/04/04 08:28:25;;;;;;;9.00;4.38;;;8.70;62.00;;;;;;5097266;28;20094;-51
2022/04/04 08:30:52;;;;;;;8.25;4.75;;;8.80;60.70;;;;;;5097290;28;20020;-57
2022/04/04 08:33:18;;;;;;;7.95;5.00;;;9.00;61.30;;;;;;5097274;28;20032;-54
2022/04/04 08:35:45;;;;;;;7.90;5.03;;;9.10;60.80;;;;;;5097106;28;20032;-57
2022/04/04 08:38:11;;;;;;;6.03;4.47;;;9.30;61.40;;;;;;5096933;28;20082;-55
2022/04/04 08:40:38;;;;;;;8.23;3.83;;;9.40;60.70;;;;;;5097336;28;20024;-56
2022/04/04 08:43:09;;;;;;;7.07;4.13;;;9.50;60.00;;;;;;5097029;28;20493;-56
2022/04/04 08:45:39;;;;;;;7.68;4.22;;;9.50;60.20;;;;;;5096859;28;20066;-56
2022/04/04 08:48:06;;;;;;;9.38;5.68;;;9.60;60.00;;;;;;5097016;28;20031;-57
2022/04/04 08:50:32;;;;;;;8.98;4.90;;;9.80;60.30;;;;;;5097093;28;20016;-55
2022/04/04 08:53:00;;;;;;;7.50;4.68;;;9.90;59.00;;;;;;5097187;28;20020;-57
2022/04/04 08:55:26;;;;;;;6.85;3.75;;;10.00;56.60;;;;;;5097270;28;20344;-55
2022/04/04 08:57:52;;;;;;;5.47;2.67;;;10.10;57.60;;;;;;5097025;28;20043;-55
2022/04/04 09:00:18;;;;;;;4.60;2.10;;;10.20;55.80;;;;;;5095541;28;20097;-55
2022/04/04 09:02:57;;;;;;;4.35;2.03;;;10.20;54.00;;;;;;5097447;28;20085;-56
2022/04/04 09:05:23;;;;;;;3.90;1.90;;;10.20;52.80;;;;;;5097433;28;20031;-56
2022/04/04 09:08:01;;;;;;;5.90;1.95;;;10.10;52.50;;;;;;5101012;28;20028;-55
2022/04/04 09:10:36;;;;;;;4.53;2.10;;;10.20;53.40;;;;;;5101015;28;20039;-56
2022/04/04 09:13:05;;;;;;;;;;;10.30;52.30;;;;;;5101607;28;20081;-54
2022/04/04 09:16:00;;;;;;;3.55;1.60;;;10.30;51.90;;;;;;5101230;28;19905;-55
2022/04/04 09:18:41;;;;;;;4.85;1.60;;;10.40;52.00;;;;;;5101254;28;20028;-56
2022/04/04 09:21:11;;;;;;;6.80;3.10;;;10.50;52.30;;;;;;5100923;28;20055;-56
2022/04/04 09:23:54;;;;;;;4.97;2.15;;;10.50;52.40;;;;;;5100251;28;20542;-55
2022/04/04 09:26:40;;;;;;;3.00;1.45;;;10.60;52.10;;;;;;5101000;28;20116;-54
2022/04/04 09:29:07;;;;;;;2.95;1.60;;;10.60;50.90;;;;;;5100837;28;20061;-56
2022/04/04 09:31:33;;;;;;;3.33;1.65;;;10.60;50.80;;;;;;5100640;28;20035;-56
2022/04/04 09:34:02;;;;;;;1.55;1.45;;;10.60;51.10;;;;;;5100501;28;20107;-55
2022/04/04 09:36:30;;;;;;;4.53;1.40;;;10.60;51.40;;;;;;5100236;28;20097;-56
2022/04/04 09:39:08;;;;;;;2.72;1.60;;;10.70;51.50;;;;;;5100045;28;20031;-57
2022/04/04 09:41:36;;;;;;;3.95;2.53;;;10.70;51.00;;;;;;5100460;28;20032;-57
2022/04/04 09:44:05;;;;;;;2.08;1.58;;;10.80;50.90;;;;;;5100029;28;20039;-54
2022/04/04 09:46:35;;;;;;;3.53;1.75;;;10.90;50.90;;;;;;5100168;28;20024;-58
2022/04/04 09:49:06;;;;;;;2.97;1.80;;;11.00;50.40;;;;;;5100121;28;20101;-55
2022/04/04 09:51:44;;;;;;;3.33;1.80;;;11.20;50.60;;;;;;5100054;28;20024;-56
2022/04/04 09:54:16;;;;;;;3.83;1.63;;;11.40;50.10;;;;;;5099981;28;20024;-57
2022/04/04 09:56:42;;;;;;;5.32;2.20;;;11.60;49.80;;;;;;5099978;28;20052;-57
2022/04/04 09:59:11;;;;;;;2.88;1.80;;;11.70;48.50;;;;;;5099978;28;20074;-57
2022/04/04 10:01:38;;;;;;;4.03;2.30;;;11.80;49.00;;;;;;5099762;28;20493;-58
2022/04/04 10:04:07;;;;;;;3.42;2.38;;;12.10;50.30;;;;;;5100041;28;20020;-57
2022/04/04 10:06:34;;;;;;;5.18;2.10;;;12.60;49.30;;;;;;5099920;28;20028;-58
2022/04/04 10:09:01;;;;;;;4.55;1.98;;;12.90;47.00;;;;;;5099639;28;20710;-57
2022/04/04 10:11:28;;;;;;;4.55;1.92;;;13.10;45.80;;;;;;5099716;28;20051;-57
2022/04/04 10:13:54;;;;;;;5.30;2.30;;;13.10;45.20;;;;;;5099541;28;20032;-54
2022/04/04 10:16:22;;;;;;;6.18;2.58;;;13.10;46.20;;;;;;5099428;28;20030;-54
2022/04/04 10:18:49;;;;;;;3.92;2.25;;;13.20;46.70;;;;;;5099376;28;20028;-57
2022/04/04 10:21:15;;;;;;;3.63;2.13;;;13.20;46.10;;;;;;5099377;28;20387;-57
2022/04/04 10:23:43;;;;;;;6.05;2.00;;;13.40;47.50;;;;;;5099071;28;20050;-58
2022/04/04 10:26:12;;;;;;;6.13;2.28;;;13.40;44.90;;;;;;5099306;28;20020;-56
2022/04/04 10:28:39;;;;;;;5.68;2.30;;;13.50;46.00;;;;;;5099246;28;20044;-56
2022/04/04 10:31:27;;;;;;;2.95;2.03;;;13.40;45.60;;;;;;5099285;28;20020;-54
2022/04/04 10:34:09;;;;;;;3.45;2.20;;;13.30;46.30;;;;;;5099219;28;20106;-55
2022/04/04 10:36:35;;;;;;;2.47;2.20;;;13.40;47.30;;;;;;5097850;28;20036;-55
2022/04/04 10:39:00;;;;;;;3.95;2.00;;;13.30;46.00;;;;;;5099218;28;20028;-55
2022/04/04 10:41:30;;;;;;;4.05;2.30;;;13.20;46.30;;;;;;5099061;28;20035;-55
2022/04/04 10:43:57;;;;;;;6.28;2.35;;;13.00;45.10;;;;;;5098998;28;20031;-55
2022/04/04 10:46:24;;;;;;;4.95;2.22;;;12.90;46.50;;;;;;5098953;28;20028;-56
2022/04/04 10:48:53;;;;;;;3.15;2.10;;;13.00;47.30;;;;;;5098962;28;20108;-56
2022/04/04 10:51:29;;;;;;;3.83;2.20;;;13.10;46.10;;;;;;5098892;28;20028;-55
2022/04/04 10:53:59;;;;;;;5.38;2.67;;;13.10;46.60;;;;;;5099202;28;20044;-57
2022/04/04 10:56:28;;;;;;;3.00;1.90;;;13.00;46.90;;;;;;5098952;28;20103;-56
2022/04/04 10:59:19;;;;;;;3.40;2.40;;;13.10;47.20;;;;;;5098875;28;20025;-55
2022/04/04 11:01:58;;;;;;;3.95;2.33;;;13.10;47.30;;;;;;5098599;28;20031;-56
2022/04/04 11:04:27;;;;;;;4.53;2.25;;;13.10;46.90;;;;;;5098571;28;20034;-55
2022/04/04 11:07:38;;;;;;;3.25;2.13;;;13.20;46.60;;;;;;5098876;28;20020;-56
2022/04/04 11:10:09;;;;;;;6.68;3.22;;;13.20;47.10;;;;;;5098887;28;20016;-54
2022/04/04 11:13:04;;;;;;;4.22;2.10;;;13.30;47.20;;;;;;5098539;28;20048;-56
2022/04/04 11:16:02;;;;;;;2.92;2.13;;;13.30;47.60;;;;;;5094564;28;20111;-56
2022/04/04 11:18:51;;;;;;;6.55;3.50;;;13.20;46.70;;;;;;5090076;28;20491;-56
2022/04/04 11:21:40;;;;;;;6.32;2.47;;;13.10;47.30;;;;;;5098138;28;20056;-58
2022/04/04 11:24:14;;;;;;;4.10;2.17;;;12.90;47.40;;;;;;5094942;28;20048;-58
2022/04/04 11:26:40;;;;;;;4.43;2.42;;;12.90;47.80;;;;;;5097427;28;20449;-57
2022/04/04 11:29:09;;;;;;;5.60;2.30;;;12.80;48.00;;;;;;5096592;28;20016;-58
2022/04/04 11:31:47;;;;;;;5.07;2.40;;;12.70;49.20;;;;;;5098209;28;20016;-58
2022/04/04 11:34:13;;;;;;;4.18;2.40;;;12.70;48.80;;;;;;5098330;28;20024;-58
2022/04/04 11:36:41;;;;;;;5.95;2.30;;;12.80;49.00;;;;;;5098233;28;20024;-57
2022/04/04 11:39:08;;;;;;;4.65;2.17;;;12.80;48.30;;;;;;5098264;28;20057;-56
2022/04/04 11:41:46;;;;;;;4.68;2.30;;;12.80;48.80;;;;;;5097881;28;20039;-55
2022/04/04 11:44:25;;;;;;;3.33;2.05;;;12.80;48.30;;;;;;5097929;28;20035;-57
2022/04/04 11:47:09;;;;;;;3.80;2.05;;;12.80;48.80;;;;;;5097849;28;20031;-56
2022/04/04 11:49:35;;;;;;;3.42;2.17;;;12.60;49.40;;;;;;5097891;28;20020;-58
2022/04/04 11:52:04;;;;;;;4.82;2.25;;;12.70;50.50;;;;;;5097673;28;20024;-58
2022/04/04 11:54:50;;;;;;;4.90;1.95;;;12.50;49.60;;;;;;5097717;28;20020;-56
2022/04/04 11:57:18;;;;;;;4.85;2.33;;;12.50;50.00;;;;;;5097864;28;20125;-57
2022/04/04 11:59:46;;;;;;;2.60;1.95;;;12.50;49.80;;;;;;5097993;28;20103;-57
2022/04/04 12:02:13;;;;;;;4.10;2.10;;;12.60;51.60;;;;;;5097861;28;20042;-58
2022/04/04 12:04:42;;;;;;;4.35;2.15;;;12.50;50.70;;;;;;5097741;28;20034;-56
2022/04/04 12:07:10;;;;;;;5.20;2.13;;;12.70;50.70;;;;;;5097809;28;20016;-57
2022/04/04 12:09:37;;;;;;;2.72;2.00;;;12.90;50.50;;;;;;5097485;28;20419;-57
2022/04/04 12:12:05;;;;;;;4.72;2.05;;;13.20;49.60;;;;;;5097744;28;20024;-58
2022/04/04 12:14:33;;;;;;;4.47;1.92;;;13.40;49.30;;;;;;5097742;28;20028;-56
2022/04/04 12:16:59;;;;;;;5.13;2.00;;;13.60;49.20;;;;;;5097703;28;20035;-54
2022/04/04 12:19:25;;;;;;;3.40;2.35;;;13.70;48.40;;;;;;5097679;28;20039;-56
2022/04/04 12:21:52;;;;;;;3.63;1.95;;;13.70;48.50;;;;;;5097626;28;20016;-55
2022/04/04 12:27:14;;;;;;;7.72;3.67;;;13.40;49.60;;;;;;5097626;28;20062;-56
2022/04/04 12:29:41;;;;;;;11.40;4.70;;;13.40;49.30;;;;;;5097696;28;20104;-55
2022/04/04 12:32:19;;;;;;;4.45;3.00;;;13.30;48.50;;;;;;5097339;28;20044;-55
2022/04/04 12:35:08;;;;;;;30.10;14.55;;;13.10;49.30;;;;;;5097226;28;20028;-56
2022/04/04 12:37:42;;;;;;;18.17;7.75;;;13.00;49.70;;;;;;5097650;28;20419;-54
2022/04/04 12:40:26;;;;;;;7.75;3.67;;;12.90;50.50;;;;;;5099269;28;20031;-55
2022/04/04 12:43:05;;;;;;;16.73;7.50;;;12.80;50.50;;;;;;5101365;28;20471;-53
2022/04/04 12:45:32;;;;;;;8.57;4.63;;;12.60;50.70;;;;;;5101342;28;20024;-54
2022/04/04 12:47:57;;;;;;;6.70;3.33;;;12.40;50.90;;;;;;5101459;28;20106;-55
2022/04/04 12:50:25;;;;;;;3.65;2.10;;;12.40;52.10;;;;;;5100876;28;20062;-55
2022/04/04 12:53:06;;;;;;;16.70;7.88;;;12.30;52.10;;;;;;5100881;28;20028;-55
2022/04/04 12:55:33;;;;;;;4.50;2.55;;;12.30;52.30;;;;;;5101433;28;20052;-56
2022/04/04 12:58:25;;;;;;;4.03;2.05;;;12.40;52.20;;;;;;5101035;28;20046;-54
2022/04/04 13:00:52;;;;;;;5.18;2.40;;;12.40;52.10;;;;;;5101248;28;20022;-54
2022/04/04 13:03:28;;;;;;;5.75;2.20;;;12.20;52.30;;;;;;5099115;28;20031;-55
2022/04/04 13:05:56;;;;;;;4.57;1.85;;;12.20;52.50;;;;;;5099431;28;20020;-57